sensor_id;sensor_type;location;lat;lon;timestamp;P1;durP1;ratioP1;P2;durP2;ratioP2
51382;SDS011;37475;43.358;1.248;2023-06-10T00:01:44;12.88;;;2.92;;
51382;SDS011;37475;43.358;1.248;2023-06-10T00:04:12;8.90;;;2.60;;
51382;SDS011;37475;43.358;1.248;2023-06-10T00:06:44;8.23;;;3.05;;
51382;SDS011;37475;43.358;1.248;2023-06-10T00:09:10;10.10;;;2.95;;
51382;SDS011;37475;43.358;1.248;2023-06-10T00:11:36;8.63;;;2.92;;
51382;SDS011;37475;43.358;1.248;2023-06-10T00:14:02;15.05;;;2.40;;
51382;SDS011;37475;43.358;1.248;2023-06-10T00:16:29;10.32;;;2.58;;
51382;SDS011;37475;43.358;1.248;2023-06-10T00:18:55;13.52;;;3.00;;
51382;SDS011;37475;43.358;1.248;2023-06-10T00:21:25;10.65;;;2.83;;
51382;SDS011;37475;43.358;1.248;2023-06-10T00:23:55;9.38;;;2.95;;
51382;SDS011;37475;43.358;1.248;2023-06-10T00:26:22;11.45;;;2.78;;
51382;SDS011;37475;43.358;1.248;2023-06-10T00:28:48;7.68;;;2.92;;
51382;SDS011;37475;43.358;1.248;2023-06-10T00:31:14;9.98;;;3.20;;
51382;SDS011;37475;43.358;1.248;2023-06-10T00:33:41;12.32;;;3.10;;
51382;SDS011;37475;43.358;1.248;2023-06-10T00:36:06;10.15;;;3.30;;
51382;SDS011;37475;43.358;1.248;2023-06-10T00:38:32;8.75;;;3.90;;
51382;SDS011;37475;43.358;1.248;2023-06-10T00:40:58;11.60;;;3.75;;
51382;SDS011;37475;43.358;1.248;2023-06-10T00:43:24;10.88;;;3.53;;
51382;SDS011;37475;43.358;1.248;2023-06-10T00:45:50;10.85;;;3.10;;
51382;SDS011;37475;43.358;1.248;2023-06-10T00:48:17;8.45;;;3.78;;
51382;SDS011;37475;43.358;1.248;2023-06-10T00:50:43;14.85;;;3.63;;
51382;SDS011;37475;43.358;1.248;2023-06-10T00:53:11;12.30;;;3.65;;
51382;SDS011;37475;43.358;1.248;2023-06-10T00:55:37;7.22;;;3.55;;
51382;SDS011;37475;43.358;1.248;2023-06-10T00:58:04;12.20;;;3.40;;
51382;SDS011;37475;43.358;1.248;2023-06-10T01:00:30;11.70;;;3.83;;
51382;SDS011;37475;43.358;1.248;2023-06-10T01:02:55;8.20;;;3.00;;
51382;SDS011;37475;43.358;1.248;2023-06-10T01:05:22;7.72;;;3.08;;
51382;SDS011;37475;43.358;1.248;2023-06-10T01:07:50;7.43;;;2.90;;
51382;SDS011;37475;43.358;1.248;2023-06-10T01:10:33;9.00;;;3.72;;
51382;SDS011;37475;43.358;1.248;2023-06-10T01:13:07;13.88;;;3.85;;
51382;SDS011;37475;43.358;1.248;2023-06-10T01:15:37;11.02;;;3.47;;
51382;SDS011;37475;43.358;1.248;2023-06-10T01:18:07;8.02;;;3.45;;
51382;SDS011;37475;43.358;1.248;2023-06-10T01:20:36;8.55;;;2.78;;
51382;SDS011;37475;43.358;1.248;2023-06-10T01:23:05;6.85;;;2.67;;
51382;SDS011;37475;43.358;1.248;2023-06-10T01:25:33;8.23;;;3.00;;
51382;SDS011;37475;43.358;1.248;2023-06-10T01:30:56;13.07;;;3.42;;
51382;SDS011;37475;43.358;1.248;2023-06-10T01:33:47;7.50;;;2.85;;
51382;SDS011;37475;43.358;1.248;2023-06-10T01:38:44;7.93;;;2.80;;
51382;SDS011;37475;43.358;1.248;2023-06-10T01:41:16;6.45;;;2.35;;
51382;SDS011;37475;43.358;1.248;2023-06-10T01:43:43;10.55;;;2.53;;
51382;SDS011;37475;43.358;1.248;2023-06-10T01:46:10;10.45;;;2.70;;
51382;SDS011;37475;43.358;1.248;2023-06-10T01:48:37;7.05;;;2.65;;
51382;SDS011;37475;43.358;1.248;2023-06-10T01:51:03;11.00;;;2.70;;
51382;SDS011;37475;43.358;1.248;2023-06-10T01:53:30;7.97;;;2.47;;
51382;SDS011;37475;43.358;1.248;2023-06-10T01:55:56;11.43;;;2.30;;
51382;SDS011;37475;43.358;1.248;2023-06-10T01:58:22;7.50;;;2.70;;
51382;SDS011;37475;43.358;1.248;2023-06-10T02:00:48;12.57;;;3.25;;
51382;SDS011;37475;43.358;1.248;2023-06-10T02:03:13;10.95;;;2.65;;
51382;SDS011;37475;43.358;1.248;2023-06-10T02:05:39;6.82;;;2.50;;
51382;SDS011;37475;43.358;1.248;2023-06-10T02:08:05;10.05;;;2.80;;
51382;SDS011;37475;43.358;1.248;2023-06-10T02:10:31;9.63;;;2.40;;
51382;SDS011;37475;43.358;1.248;2023-06-10T02:12:57;5.25;;;1.98;;
51382;SDS011;37475;43.358;1.248;2023-06-10T02:15:23;6.10;;;1.67;;
51382;SDS011;37475;43.358;1.248;2023-06-10T02:17:49;8.27;;;2.35;;
51382;SDS011;37475;43.358;1.248;2023-06-10T02:20:15;23.05;;;2.45;;
51382;SDS011;37475;43.358;1.248;2023-06-10T02:22:41;12.18;;;3.15;;
51382;SDS011;37475;43.358;1.248;2023-06-10T02:25:07;8.55;;;2.40;;
51382;SDS011;37475;43.358;1.248;2023-06-10T02:27:33;8.23;;;2.70;;
51382;SDS011;37475;43.358;1.248;2023-06-10T02:29:59;6.72;;;2.22;;
51382;SDS011;37475;43.358;1.248;2023-06-10T02:32:25;7.13;;;2.83;;
51382;SDS011;37475;43.358;1.248;2023-06-10T02:34:51;15.13;;;2.38;;
51382;SDS011;37475;43.358;1.248;2023-06-10T02:37:18;42.10;;;3.88;;
51382;SDS011;37475;43.358;1.248;2023-06-10T02:39:44;9.68;;;2.30;;
51382;SDS011;37475;43.358;1.248;2023-06-10T02:42:09;4.45;;;2.20;;
51382;SDS011;37475;43.358;1.248;2023-06-10T02:44:35;6.15;;;2.60;;
51382;SDS011;37475;43.358;1.248;2023-06-10T02:47:01;8.15;;;2.58;;
51382;SDS011;37475;43.358;1.248;2023-06-10T02:49:27;13.48;;;2.63;;
51382;SDS011;37475;43.358;1.248;2023-06-10T02:51:53;11.00;;;2.83;;
51382;SDS011;37475;43.358;1.248;2023-06-10T02:54:19;10.82;;;2.50;;
51382;SDS011;37475;43.358;1.248;2023-06-10T02:56:46;9.70;;;2.20;;
51382;SDS011;37475;43.358;1.248;2023-06-10T02:59:13;8.85;;;2.40;;
51382;SDS011;37475;43.358;1.248;2023-06-10T03:01:39;8.60;;;2.60;;
51382;SDS011;37475;43.358;1.248;2023-06-10T03:04:06;9.45;;;2.60;;
51382;SDS011;37475;43.358;1.248;2023-06-10T03:06:33;11.50;;;3.00;;
51382;SDS011;37475;43.358;1.248;2023-06-10T03:09:02;8.23;;;2.80;;
51382;SDS011;37475;43.358;1.248;2023-06-10T03:11:29;7.50;;;2.50;;
51382;SDS011;37475;43.358;1.248;2023-06-10T03:13:56;7.68;;;2.50;;
51382;SDS011;37475;43.358;1.248;2023-06-10T03:16:22;7.50;;;2.80;;
51382;SDS011;37475;43.358;1.248;2023-06-10T03:18:50;7.40;;;2.60;;
51382;SDS011;37475;43.358;1.248;2023-06-10T03:21:17;9.70;;;2.55;;
51382;SDS011;37475;43.358;1.248;2023-06-10T03:23:42;11.13;;;2.40;;
51382;SDS011;37475;43.358;1.248;2023-06-10T03:26:08;9.40;;;3.13;;
51382;SDS011;37475;43.358;1.248;2023-06-10T03:28:35;9.43;;;3.00;;
51382;SDS011;37475;43.358;1.248;2023-06-10T03:31:01;5.65;;;2.05;;
51382;SDS011;37475;43.358;1.248;2023-06-10T03:33:27;28.48;;;2.33;;
51382;SDS011;37475;43.358;1.248;2023-06-10T03:35:52;26.38;;;2.28;;
51382;SDS011;37475;43.358;1.248;2023-06-10T03:38:18;21.33;;;2.50;;
51382;SDS011;37475;43.358;1.248;2023-06-10T03:40:44;139.98;;;7.45;;
51382;SDS011;37475;43.358;1.248;2023-06-10T03:43:10;73.47;;;4.72;;
51382;SDS011;37475;43.358;1.248;2023-06-10T03:45:36;215.40;;;12.35;;
51382;SDS011;37475;43.358;1.248;2023-06-10T03:48:02;228.40;;;10.30;;
51382;SDS011;37475;43.358;1.248;2023-06-10T03:50:28;126.80;;;5.90;;
51382;SDS011;37475;43.358;1.248;2023-06-10T03:52:54;31.45;;;2.28;;
51382;SDS011;37475;43.358;1.248;2023-06-10T03:55:20;160.65;;;5.35;;
51382;SDS011;37475;43.358;1.248;2023-06-10T03:57:49;55.25;;;3.40;;
51382;SDS011;37475;43.358;1.248;2023-06-10T04:00:15;9.13;;;2.25;;
51382;SDS011;37475;43.358;1.248;2023-06-10T04:02:43;5.95;;;2.08;;
51382;SDS011;37475;43.358;1.248;2023-06-10T04:05:13;5.18;;;2.00;;
51382;SDS011;37475;43.358;1.248;2023-06-10T04:07:41;4.93;;;2.17;;
51382;SDS011;37475;43.358;1.248;2023-06-10T04:10:08;5.85;;;1.75;;
51382;SDS011;37475;43.358;1.248;2023-06-10T04:12:36;4.25;;;2.08;;
51382;SDS011;37475;43.358;1.248;2023-06-10T04:15:03;4.97;;;2.00;;
51382;SDS011;37475;43.358;1.248;2023-06-10T04:17:30;8.05;;;2.28;;
51382;SDS011;37475;43.358;1.248;2023-06-10T04:19:56;4.25;;;2.10;;
51382;SDS011;37475;43.358;1.248;2023-06-10T04:22:23;6.22;;;2.20;;
51382;SDS011;37475;43.358;1.248;2023-06-10T04:24:50;4.22;;;1.77;;
51382;SDS011;37475;43.358;1.248;2023-06-10T04:27:16;6.00;;;1.98;;
51382;SDS011;37475;43.358;1.248;2023-06-10T04:29:42;5.82;;;2.08;;
51382;SDS011;37475;43.358;1.248;2023-06-10T04:32:08;13.73;;;2.80;;
51382;SDS011;37475;43.358;1.248;2023-06-10T04:34:34;9.75;;;2.72;;
51382;SDS011;37475;43.358;1.248;2023-06-10T04:37:00;9.90;;;2.70;;
51382;SDS011;37475;43.358;1.248;2023-06-10T04:39:26;7.45;;;2.60;;
51382;SDS011;37475;43.358;1.248;2023-06-10T04:41:52;5.75;;;2.65;;
51382;SDS011;37475;43.358;1.248;2023-06-10T04:44:18;10.38;;;2.70;;
51382;SDS011;37475;43.358;1.248;2023-06-10T04:46:44;12.98;;;2.53;;
51382;SDS011;37475;43.358;1.248;2023-06-10T04:49:10;6.78;;;2.58;;
51382;SDS011;37475;43.358;1.248;2023-06-10T04:51:39;10.27;;;2.85;;
51382;SDS011;37475;43.358;1.248;2023-06-10T04:54:05;9.85;;;2.30;;
51382;SDS011;37475;43.358;1.248;2023-06-10T04:56:31;9.00;;;2.22;;
51382;SDS011;37475;43.358;1.248;2023-06-10T04:58:57;12.63;;;2.85;;
51382;SDS011;37475;43.358;1.248;2023-06-10T05:01:23;12.23;;;2.88;;
51382;SDS011;37475;43.358;1.248;2023-06-10T05:03:49;15.68;;;3.08;;
51382;SDS011;37475;43.358;1.248;2023-06-10T05:06:15;10.25;;;3.30;;
51382;SDS011;37475;43.358;1.248;2023-06-10T05:08:41;7.60;;;3.38;;
51382;SDS011;37475;43.358;1.248;2023-06-10T05:11:07;9.98;;;2.60;;
51382;SDS011;37475;43.358;1.248;2023-06-10T05:13:33;8.57;;;3.00;;
51382;SDS011;37475;43.358;1.248;2023-06-10T05:15:59;11.68;;;3.45;;
51382;SDS011;37475;43.358;1.248;2023-06-10T05:18:25;10.30;;;2.92;;
51382;SDS011;37475;43.358;1.248;2023-06-10T05:20:51;13.45;;;3.00;;
51382;SDS011;37475;43.358;1.248;2023-06-10T05:23:18;10.15;;;3.30;;
51382;SDS011;37475;43.358;1.248;2023-06-10T05:25:47;11.57;;;3.17;;
51382;SDS011;37475;43.358;1.248;2023-06-10T05:28:13;11.25;;;3.33;;
51382;SDS011;37475;43.358;1.248;2023-06-10T05:30:38;7.88;;;3.65;;
51382;SDS011;37475;43.358;1.248;2023-06-10T05:33:04;13.57;;;3.30;;
51382;SDS011;37475;43.358;1.248;2023-06-10T05:35:30;7.15;;;3.20;;
51382;SDS011;37475;43.358;1.248;2023-06-10T05:37:56;13.05;;;3.15;;
51382;SDS011;37475;43.358;1.248;2023-06-10T05:40:22;13.25;;;2.85;;
51382;SDS011;37475;43.358;1.248;2023-06-10T05:42:48;10.70;;;2.88;;
51382;SDS011;37475;43.358;1.248;2023-06-10T05:45:15;14.57;;;4.25;;
51382;SDS011;37475;43.358;1.248;2023-06-10T05:47:41;7.63;;;3.08;;
51382;SDS011;37475;43.358;1.248;2023-06-10T05:50:07;8.65;;;3.22;;
51382;SDS011;37475;43.358;1.248;2023-06-10T05:52:34;7.35;;;2.40;;
51382;SDS011;37475;43.358;1.248;2023-06-10T05:55:01;9.43;;;2.70;;
51382;SDS011;37475;43.358;1.248;2023-06-10T05:57:28;8.88;;;2.60;;
51382;SDS011;37475;43.358;1.248;2023-06-10T05:59:54;11.90;;;2.95;;
51382;SDS011;37475;43.358;1.248;2023-06-10T06:02:20;11.60;;;2.90;;
51382;SDS011;37475;43.358;1.248;2023-06-10T06:04:46;7.00;;;2.83;;
51382;SDS011;37475;43.358;1.248;2023-06-10T06:07:11;7.47;;;2.95;;
51382;SDS011;37475;43.358;1.248;2023-06-10T06:09:37;7.70;;;2.60;;
51382;SDS011;37475;43.358;1.248;2023-06-10T06:12:03;6.63;;;3.00;;
51382;SDS011;37475;43.358;1.248;2023-06-10T06:14:31;8.05;;;2.40;;
51382;SDS011;37475;43.358;1.248;2023-06-10T06:16:57;8.57;;;2.50;;
51382;SDS011;37475;43.358;1.248;2023-06-10T06:19:23;8.30;;;2.45;;
51382;SDS011;37475;43.358;1.248;2023-06-10T06:21:49;9.25;;;2.42;;
51382;SDS011;37475;43.358;1.248;2023-06-10T06:24:15;4.88;;;2.30;;
51382;SDS011;37475;43.358;1.248;2023-06-10T06:26:41;10.98;;;2.75;;
51382;SDS011;37475;43.358;1.248;2023-06-10T06:29:07;10.45;;;2.78;;
51382;SDS011;37475;43.358;1.248;2023-06-10T06:31:33;6.53;;;2.38;;
51382;SDS011;37475;43.358;1.248;2023-06-10T06:33:59;7.47;;;2.25;;
51382;SDS011;37475;43.358;1.248;2023-06-10T06:36:25;8.10;;;2.45;;
51382;SDS011;37475;43.358;1.248;2023-06-10T06:38:50;11.40;;;3.80;;
51382;SDS011;37475;43.358;1.248;2023-06-10T06:41:17;4.63;;;2.22;;
51382;SDS011;37475;43.358;1.248;2023-06-10T06:43:42;8.60;;;2.33;;
51382;SDS011;37475;43.358;1.248;2023-06-10T06:46:09;5.75;;;2.33;;
51382;SDS011;37475;43.358;1.248;2023-06-10T06:48:35;9.85;;;2.30;;
51382;SDS011;37475;43.358;1.248;2023-06-10T06:51:01;7.93;;;2.42;;
51382;SDS011;37475;43.358;1.248;2023-06-10T06:53:28;8.23;;;2.60;;
51382;SDS011;37475;43.358;1.248;2023-06-10T06:55:54;3.75;;;2.10;;
51382;SDS011;37475;43.358;1.248;2023-06-10T06:58:20;5.53;;;2.35;;
51382;SDS011;37475;43.358;1.248;2023-06-10T07:00:46;9.73;;;2.60;;
51382;SDS011;37475;43.358;1.248;2023-06-10T07:03:13;7.72;;;2.47;;
51382;SDS011;37475;43.358;1.248;2023-06-10T07:05:39;7.45;;;2.63;;
51382;SDS011;37475;43.358;1.248;2023-06-10T07:08:05;9.30;;;2.50;;
51382;SDS011;37475;43.358;1.248;2023-06-10T07:10:30;5.97;;;2.42;;
51382;SDS011;37475;43.358;1.248;2023-06-10T07:12:56;4.88;;;2.17;;
51382;SDS011;37475;43.358;1.248;2023-06-10T07:15:22;5.57;;;2.17;;
51382;SDS011;37475;43.358;1.248;2023-06-10T07:17:48;8.85;;;2.10;;
51382;SDS011;37475;43.358;1.248;2023-06-10T07:20:14;7.07;;;2.47;;
51382;SDS011;37475;43.358;1.248;2023-06-10T07:22:41;7.10;;;1.92;;
51382;SDS011;37475;43.358;1.248;2023-06-10T07:25:07;7.65;;;2.40;;
51382;SDS011;37475;43.358;1.248;2023-06-10T07:27:33;7.07;;;1.80;;
51382;SDS011;37475;43.358;1.248;2023-06-10T07:30:01;5.25;;;2.00;;
51382;SDS011;37475;43.358;1.248;2023-06-10T07:32:27;7.20;;;1.88;;
51382;SDS011;37475;43.358;1.248;2023-06-10T07:34:52;5.85;;;1.83;;
51382;SDS011;37475;43.358;1.248;2023-06-10T07:37:18;7.88;;;2.00;;
51382;SDS011;37475;43.358;1.248;2023-06-10T07:39:44;5.97;;;1.77;;
51382;SDS011;37475;43.358;1.248;2023-06-10T07:42:11;3.83;;;1.80;;
51382;SDS011;37475;43.358;1.248;2023-06-10T07:44:37;3.83;;;1.88;;
51382;SDS011;37475;43.358;1.248;2023-06-10T07:47:03;6.63;;;1.98;;
51382;SDS011;37475;43.358;1.248;2023-06-10T07:49:29;5.47;;;2.28;;
51382;SDS011;37475;43.358;1.248;2023-06-10T07:51:55;5.10;;;1.90;;
51382;SDS011;37475;43.358;1.248;2023-06-10T07:54:21;4.47;;;2.00;;
51382;SDS011;37475;43.358;1.248;2023-06-10T07:56:47;4.93;;;1.67;;
51382;SDS011;37475;43.358;1.248;2023-06-10T07:59:15;5.00;;;1.80;;
51382;SDS011;37475;43.358;1.248;2023-06-10T08:01:41;3.70;;;1.45;;
51382;SDS011;37475;43.358;1.248;2023-06-10T08:04:07;6.85;;;1.70;;
51382;SDS011;37475;43.358;1.248;2023-06-10T08:06:33;8.57;;;2.08;;
51382;SDS011;37475;43.358;1.248;2023-06-10T08:08:59;4.53;;;1.88;;
51382;SDS011;37475;43.358;1.248;2023-06-10T08:11:25;5.88;;;2.00;;
51382;SDS011;37475;43.358;1.248;2023-06-10T08:13:53;3.97;;;1.60;;
51382;SDS011;37475;43.358;1.248;2023-06-10T08:16:19;6.00;;;2.08;;
51382;SDS011;37475;43.358;1.248;2023-06-10T08:18:45;6.45;;;2.20;;
51382;SDS011;37475;43.358;1.248;2023-06-10T08:21:11;4.35;;;1.88;;
51382;SDS011;37475;43.358;1.248;2023-06-10T08:23:36;6.30;;;2.10;;
51382;SDS011;37475;43.358;1.248;2023-06-10T08:26:02;4.18;;;1.70;;
51382;SDS011;37475;43.358;1.248;2023-06-10T08:28:28;3.40;;;1.75;;
51382;SDS011;37475;43.358;1.248;2023-06-10T08:30:54;4.53;;;2.15;;
51382;SDS011;37475;43.358;1.248;2023-06-10T08:33:20;5.57;;;2.10;;
51382;SDS011;37475;43.358;1.248;2023-06-10T08:35:45;4.43;;;1.70;;
51382;SDS011;37475;43.358;1.248;2023-06-10T08:38:11;5.65;;;1.83;;
51382;SDS011;37475;43.358;1.248;2023-06-10T08:40:37;4.10;;;1.90;;
51382;SDS011;37475;43.358;1.248;2023-06-10T08:43:07;8.25;;;1.92;;
51382;SDS011;37475;43.358;1.248;2023-06-10T08:48:03;3.47;;;1.73;;
51382;SDS011;37475;43.358;1.248;2023-06-10T08:50:32;3.95;;;1.70;;
51382;SDS011;37475;43.358;1.248;2023-06-10T08:53:01;3.90;;;1.60;;
51382;SDS011;37475;43.358;1.248;2023-06-10T08:55:36;3.83;;;1.80;;
51382;SDS011;37475;43.358;1.248;2023-06-10T08:58:03;3.22;;;1.48;;
51382;SDS011;37475;43.358;1.248;2023-06-10T09:00:30;3.65;;;1.40;;
51382;SDS011;37475;43.358;1.248;2023-06-10T09:02:57;3.97;;;1.20;;
51382;SDS011;37475;43.358;1.248;2023-06-10T09:05:23;3.92;;;1.40;;
51382;SDS011;37475;43.358;1.248;2023-06-10T09:07:52;5.95;;;1.70;;
51382;SDS011;37475;43.358;1.248;2023-06-10T09:10:19;3.30;;;1.45;;
51382;SDS011;37475;43.358;1.248;2023-06-10T09:12:44;3.22;;;1.58;;
51382;SDS011;37475;43.358;1.248;2023-06-10T09:15:10;4.25;;;1.48;;
51382;SDS011;37475;43.358;1.248;2023-06-10T09:17:37;4.22;;;1.60;;
51382;SDS011;37475;43.358;1.248;2023-06-10T09:20:06;6.20;;;1.98;;
51382;SDS011;37475;43.358;1.248;2023-06-10T09:22:33;5.13;;;1.70;;
51382;SDS011;37475;43.358;1.248;2023-06-10T09:25:17;5.13;;;1.52;;
51382;SDS011;37475;43.358;1.248;2023-06-10T09:27:52;4.05;;;1.55;;
51382;SDS011;37475;43.358;1.248;2023-06-10T09:32:52;2.88;;;1.58;;
51382;SDS011;37475;43.358;1.248;2023-06-10T09:35:21;2.95;;;1.50;;
51382;SDS011;37475;43.358;1.248;2023-06-10T09:37:58;3.45;;;1.50;;
51382;SDS011;37475;43.358;1.248;2023-06-10T09:40:25;5.00;;;1.50;;
51382;SDS011;37475;43.358;1.248;2023-06-10T09:42:58;3.88;;;1.70;;
51382;SDS011;37475;43.358;1.248;2023-06-10T09:45:31;6.30;;;1.58;;
51382;SDS011;37475;43.358;1.248;2023-06-10T09:47:57;3.70;;;1.77;;
51382;SDS011;37475;43.358;1.248;2023-06-10T09:50:23;7.20;;;1.80;;
51382;SDS011;37475;43.358;1.248;2023-06-10T09:52:50;3.55;;;1.45;;
51382;SDS011;37475;43.358;1.248;2023-06-10T09:55:16;4.20;;;1.70;;
51382;SDS011;37475;43.358;1.248;2023-06-10T09:57:43;5.63;;;1.50;;
51382;SDS011;37475;43.358;1.248;2023-06-10T10:00:13;2.88;;;1.50;;
51382;SDS011;37475;43.358;1.248;2023-06-10T10:02:47;6.30;;;1.77;;
51382;SDS011;37475;43.358;1.248;2023-06-10T10:05:16;4.32;;;1.70;;
51382;SDS011;37475;43.358;1.248;2023-06-10T10:07:44;2.85;;;1.33;;
51382;SDS011;37475;43.358;1.248;2023-06-10T10:10:11;4.90;;;1.50;;
51382;SDS011;37475;43.358;1.248;2023-06-10T10:12:40;3.53;;;1.40;;
51382;SDS011;37475;43.358;1.248;2023-06-10T10:15:08;5.03;;;1.50;;
51382;SDS011;37475;43.358;1.248;2023-06-10T10:18:10;5.60;;;1.85;;
51382;SDS011;37475;43.358;1.248;2023-06-10T10:20:37;4.22;;;1.95;;
51382;SDS011;37475;43.358;1.248;2023-06-10T10:23:35;2.40;;;1.30;;
51382;SDS011;37475;43.358;1.248;2023-06-10T10:26:29;4.65;;;1.30;;
51382;SDS011;37475;43.358;1.248;2023-06-10T10:32:01;3.40;;;1.25;;
51382;SDS011;37475;43.358;1.248;2023-06-10T10:37:27;3.63;;;1.20;;
51382;SDS011;37475;43.358;1.248;2023-06-10T10:39:53;3.42;;;1.20;;
51382;SDS011;37475;43.358;1.248;2023-06-10T10:42:20;2.00;;;0.90;;
51382;SDS011;37475;43.358;1.248;2023-06-10T10:44:46;2.60;;;1.17;;
51382;SDS011;37475;43.358;1.248;2023-06-10T10:47:14;2.75;;;1.10;;
51382;SDS011;37475;43.358;1.248;2023-06-10T10:49:47;2.90;;;0.80;;
51382;SDS011;37475;43.358;1.248;2023-06-10T10:52:23;1.75;;;0.70;;
51382;SDS011;37475;43.358;1.248;2023-06-10T10:54:50;1.90;;;0.70;;
51382;SDS011;37475;43.358;1.248;2023-06-10T10:57:23;2.05;;;0.90;;
51382;SDS011;37475;43.358;1.248;2023-06-10T11:05:05;1.92;;;1.00;;
51382;SDS011;37475;43.358;1.248;2023-06-10T11:07:33;2.42;;;1.10;;
51382;SDS011;37475;43.358;1.248;2023-06-10T11:10:05;1.70;;;0.98;;
51382;SDS011;37475;43.358;1.248;2023-06-10T11:12:49;3.17;;;1.08;;
51382;SDS011;37475;43.358;1.248;2023-06-10T11:15:19;2.67;;;1.00;;
51382;SDS011;37475;43.358;1.248;2023-06-10T11:18:08;3.35;;;1.10;;
51382;SDS011;37475;43.358;1.248;2023-06-10T11:23:24;4.07;;;1.08;;
51382;SDS011;37475;43.358;1.248;2023-06-10T11:25:50;1.40;;;0.80;;
51382;SDS011;37475;43.358;1.248;2023-06-10T11:28:19;2.45;;;1.00;;
51382;SDS011;37475;43.358;1.248;2023-06-10T11:30:46;3.15;;;0.95;;
51382;SDS011;37475;43.358;1.248;2023-06-10T11:33:22;2.65;;;0.90;;
51382;SDS011;37475;43.358;1.248;2023-06-10T11:35:49;2.63;;;1.00;;
51382;SDS011;37475;43.358;1.248;2023-06-10T11:38:15;1.55;;;0.80;;
51382;SDS011;37475;43.358;1.248;2023-06-10T11:40:46;1.70;;;0.80;;
51382;SDS011;37475;43.358;1.248;2023-06-10T11:43:16;1.90;;;0.90;;
51382;SDS011;37475;43.358;1.248;2023-06-10T11:45:43;2.05;;;0.80;;
51382;SDS011;37475;43.358;1.248;2023-06-10T11:48:09;2.92;;;0.90;;
51382;SDS011;37475;43.358;1.248;2023-06-10T11:50:35;2.35;;;0.90;;
51382;SDS011;37475;43.358;1.248;2023-06-10T11:53:02;2.63;;;0.80;;
51382;SDS011;37475;43.358;1.248;2023-06-10T11:55:41;2.42;;;0.90;;
51382;SDS011;37475;43.358;1.248;2023-06-10T11:58:16;1.33;;;0.77;;
51382;SDS011;37475;43.358;1.248;2023-06-10T12:00:51;2.42;;;0.90;;
51382;SDS011;37475;43.358;1.248;2023-06-10T12:03:19;3.40;;;0.90;;
51382;SDS011;37475;43.358;1.248;2023-06-10T12:06:02;1.98;;;0.90;;
51382;SDS011;37475;43.358;1.248;2023-06-10T12:08:30;1.77;;;0.80;;
51382;SDS011;37475;43.358;1.248;2023-06-10T12:10:57;1.63;;;0.68;;
51382;SDS011;37475;43.358;1.248;2023-06-10T12:13:23;4.85;;;0.88;;
51382;SDS011;37475;43.358;1.248;2023-06-10T12:15:52;2.15;;;0.93;;
51382;SDS011;37475;43.358;1.248;2023-06-10T12:18:19;1.55;;;0.70;;
51382;SDS011;37475;43.358;1.248;2023-06-10T12:20:48;1.85;;;0.88;;
51382;SDS011;37475;43.358;1.248;2023-06-10T12:23:16;1.70;;;0.80;;
51382;SDS011;37475;43.358;1.248;2023-06-10T12:25:53;1.60;;;0.70;;
51382;SDS011;37475;43.358;1.248;2023-06-10T12:28:21;1.27;;;0.70;;
51382;SDS011;37475;43.358;1.248;2023-06-10T12:30:51;2.20;;;0.90;;
51382;SDS011;37475;43.358;1.248;2023-06-10T12:33:31;2.58;;;0.90;;
51382;SDS011;37475;43.358;1.248;2023-06-10T12:35:57;1.23;;;0.80;;
51382;SDS011;37475;43.358;1.248;2023-06-10T12:38:26;1.63;;;0.70;;
51382;SDS011;37475;43.358;1.248;2023-06-10T12:40:52;2.67;;;0.80;;
51382;SDS011;37475;43.358;1.248;2023-06-10T12:43:22;1.40;;;0.70;;
51382;SDS011;37475;43.358;1.248;2023-06-10T12:45:48;1.92;;;0.70;;
51382;SDS011;37475;43.358;1.248;2023-06-10T12:50:52;2.45;;;0.95;;
51382;SDS011;37475;43.358;1.248;2023-06-10T12:53:23;2.47;;;0.80;;
51382;SDS011;37475;43.358;1.248;2023-06-10T12:55:51;1.08;;;0.68;;
51382;SDS011;37475;43.358;1.248;2023-06-10T12:58:21;3.00;;;0.80;;
51382;SDS011;37475;43.358;1.248;2023-06-10T13:00:48;1.30;;;0.70;;
51382;SDS011;37475;43.358;1.248;2023-06-10T13:03:14;2.28;;;0.70;;
51382;SDS011;37475;43.358;1.248;2023-06-10T13:05:40;2.33;;;0.95;;
51382;SDS011;37475;43.358;1.248;2023-06-10T13:08:06;3.30;;;0.80;;
51382;SDS011;37475;43.358;1.248;2023-06-10T13:10:35;2.10;;;0.80;;
51382;SDS011;37475;43.358;1.248;2023-06-10T13:13:02;2.28;;;0.85;;
51382;SDS011;37475;43.358;1.248;2023-06-10T13:15:31;1.73;;;0.80;;
51382;SDS011;37475;43.358;1.248;2023-06-10T13:18:01;1.63;;;0.70;;
51382;SDS011;37475;43.358;1.248;2023-06-10T13:20:28;1.45;;;0.70;;
51382;SDS011;37475;43.358;1.248;2023-06-10T13:22:54;3.33;;;0.90;;
51382;SDS011;37475;43.358;1.248;2023-06-10T13:25:20;1.77;;;0.60;;
51382;SDS011;37475;43.358;1.248;2023-06-10T13:27:46;1.80;;;0.80;;
51382;SDS011;37475;43.358;1.248;2023-06-10T13:30:12;1.50;;;0.60;;
51382;SDS011;37475;43.358;1.248;2023-06-10T13:32:38;1.58;;;0.70;;
51382;SDS011;37475;43.358;1.248;2023-06-10T13:35:04;2.95;;;0.90;;
51382;SDS011;37475;43.358;1.248;2023-06-10T13:37:30;2.10;;;0.70;;
51382;SDS011;37475;43.358;1.248;2023-06-10T13:39:56;2.97;;;0.70;;
51382;SDS011;37475;43.358;1.248;2023-06-10T13:42:22;1.15;;;0.60;;
51382;SDS011;37475;43.358;1.248;2023-06-10T13:44:48;1.35;;;0.60;;
51382;SDS011;37475;43.358;1.248;2023-06-10T13:47:14;1.77;;;0.70;;
51382;SDS011;37475;43.358;1.248;2023-06-10T13:49:40;2.78;;;0.80;;
51382;SDS011;37475;43.358;1.248;2023-06-10T13:52:06;2.03;;;0.63;;
51382;SDS011;37475;43.358;1.248;2023-06-10T13:54:33;1.58;;;0.80;;
51382;SDS011;37475;43.358;1.248;2023-06-10T13:57:01;1.02;;;0.65;;
51382;SDS011;37475;43.358;1.248;2023-06-10T13:59:27;1.88;;;0.73;;
51382;SDS011;37475;43.358;1.248;2023-06-10T14:01:53;3.03;;;0.95;;
51382;SDS011;37475;43.358;1.248;2023-06-10T14:04:19;2.45;;;0.70;;
51382;SDS011;37475;43.358;1.248;2023-06-10T14:06:44;1.88;;;0.70;;
51382;SDS011;37475;43.358;1.248;2023-06-10T14:09:12;1.45;;;0.70;;
51382;SDS011;37475;43.358;1.248;2023-06-10T14:11:38;0.82;;;0.60;;
51382;SDS011;37475;43.358;1.248;2023-06-10T14:14:04;1.83;;;0.80;;
51382;SDS011;37475;43.358;1.248;2023-06-10T14:16:30;1.40;;;0.70;;
51382;SDS011;37475;43.358;1.248;2023-06-10T14:18:56;2.10;;;0.80;;
51382;SDS011;37475;43.358;1.248;2023-06-10T14:21:22;2.83;;;0.90;;
51382;SDS011;37475;43.358;1.248;2023-06-10T14:23:47;1.40;;;0.80;;
51382;SDS011;37475;43.358;1.248;2023-06-10T14:26:14;1.48;;;0.70;;
51382;SDS011;37475;43.358;1.248;2023-06-10T14:28:40;1.92;;;0.80;;
51382;SDS011;37475;43.358;1.248;2023-06-10T14:31:06;2.03;;;0.80;;
51382;SDS011;37475;43.358;1.248;2023-06-10T14:33:32;1.98;;;0.77;;
51382;SDS011;37475;43.358;1.248;2023-06-10T14:35:59;2.75;;;0.95;;
51382;SDS011;37475;43.358;1.248;2023-06-10T14:38:25;1.90;;;0.80;;
51382;SDS011;37475;43.358;1.248;2023-06-10T14:40:50;2.53;;;0.90;;
51382;SDS011;37475;43.358;1.248;2023-06-10T14:43:17;1.75;;;0.63;;
51382;SDS011;37475;43.358;1.248;2023-06-10T14:45:43;10.38;;;1.00;;
51382;SDS011;37475;43.358;1.248;2023-06-10T14:48:10;1.60;;;0.80;;
51382;SDS011;37475;43.358;1.248;2023-06-10T14:50:37;1.10;;;0.80;;
51382;SDS011;37475;43.358;1.248;2023-06-10T14:53:05;3.78;;;1.00;;
51382;SDS011;37475;43.358;1.248;2023-06-10T14:55:31;1.75;;;0.80;;
51382;SDS011;37475;43.358;1.248;2023-06-10T14:57:56;1.63;;;0.80;;
51382;SDS011;37475;43.358;1.248;2023-06-10T15:00:23;2.47;;;0.82;;
51382;SDS011;37475;43.358;1.248;2023-06-10T15:02:50;2.05;;;0.70;;
51382;SDS011;37475;43.358;1.248;2023-06-10T15:05:16;3.00;;;0.95;;
51382;SDS011;37475;43.358;1.248;2023-06-10T15:07:44;1.48;;;0.73;;
51382;SDS011;37475;43.358;1.248;2023-06-10T15:10:10;4.03;;;0.77;;
51382;SDS011;37475;43.358;1.248;2023-06-10T15:12:37;1.80;;;0.70;;
51382;SDS011;37475;43.358;1.248;2023-06-10T15:15:03;2.15;;;1.10;;